createdAt,value
2018-06-13T00:01:11.246Z,1.07
2018-06-13T00:06:05.804Z,1.33
2018-06-13T00:11:00.221Z,1.40
2018-06-13T00:15:54.773Z,1.33
2018-06-13T00:20:49.191Z,1.10
2018-06-13T00:25:44.800Z,0.90
2018-06-13T00:30:39.232Z,0.90
2018-06-13T00:35:33.621Z,0.90
2018-06-13T00:40:28.021Z,1.00
2018-06-13T00:45:22.470Z,1.20
2018-06-13T00:50:16.889Z,1.17
2018-06-13T00:55:11.296Z,1.30
2018-06-13T01:00:06.090Z,1.10
2018-06-13T01:05:00.512Z,1.30
2018-06-13T01:09:54.940Z,1.27
2018-06-13T01:14:49.369Z,1.57
2018-06-13T01:19:43.785Z,1.90
2018-06-13T01:24:38.181Z,2.40
2018-06-13T01:29:32.734Z,2.20
2018-06-13T01:34:27.126Z,2.03
2018-06-13T01:39:21.561Z,2.50
2018-06-13T01:44:15.964Z,2.10
2018-06-13T01:49:10.386Z,2.60
2018-06-13T01:54:04.791Z,2.83
2018-06-13T01:58:59.209Z,2.40
2018-06-13T02:03:53.602Z,1.73
2018-06-13T02:08:48.007Z,1.03
2018-06-13T02:13:42.413Z,1.20
2018-06-13T02:18:36.833Z,0.80
2018-06-13T02:23:31.297Z,0.80
2018-06-13T02:28:25.701Z,0.60
2018-06-13T02:33:20.097Z,0.77
2018-06-13T02:38:14.496Z,0.73
2018-06-13T02:43:08.919Z,0.77
2018-06-13T02:48:03.320Z,0.90
2018-06-13T02:52:57.724Z,0.97
2018-06-13T02:57:52.165Z,0.83
2018-06-13T03:02:46.557Z,1.17
2018-06-13T03:07:40.984Z,0.90
2018-06-13T03:12:35.379Z,1.10
2018-06-13T03:17:29.809Z,1.03
2018-06-13T03:22:24.237Z,1.10
2018-06-13T03:27:18.670Z,1.60
2018-06-13T03:32:13.086Z,1.37
2018-06-13T03:37:07.525Z,1.43
2018-06-13T03:42:01.921Z,1.90
2018-06-13T03:46:56.348Z,1.60
2018-06-13T03:51:50.750Z,1.80
2018-06-13T03:56:45.164Z,2.20
2018-06-13T04:01:39.644Z,2.10
2018-06-13T04:06:34.060Z,2.30
2018-06-13T04:11:28.512Z,2.50
2018-06-13T04:16:23.024Z,3.07
2018-06-13T04:21:17.432Z,3.00
2018-06-13T04:26:11.848Z,3.17
2018-06-13T04:31:06.329Z,3.70
2018-06-13T04:36:00.725Z,3.67
2018-06-13T04:40:55.179Z,3.60
2018-06-13T04:45:49.645Z,4.00
2018-06-13T04:50:44.066Z,3.80
2018-06-13T04:55:38.466Z,4.13
2018-06-13T05:00:32.856Z,5.40
2018-06-13T05:05:27.312Z,6.50
2018-06-13T05:10:21.736Z,7.70
2018-06-13T05:15:16.197Z,8.97
2018-06-13T05:20:10.636Z,9.30
2018-06-13T05:25:05.214Z,8.23
2018-06-13T05:29:59.668Z,9.00
2018-06-13T05:34:54.280Z,8.90
2018-06-13T05:39:49.042Z,9.67
2018-06-13T05:44:43.549Z,7.63
2018-06-13T05:49:37.938Z,6.83
2018-06-13T05:54:32.382Z,5.97
2018-06-13T05:59:26.799Z,5.73
2018-06-13T06:04:21.189Z,4.73
2018-06-13T06:09:15.578Z,4.33
2018-06-13T06:14:09.994Z,4.30
2018-06-13T06:19:04.569Z,3.50
2018-06-13T06:23:59.529Z,3.07
2018-06-13T06:28:55.311Z,3.10
2018-06-13T06:33:49.840Z,3.17
2018-06-13T06:38:44.311Z,2.97
2018-06-13T06:43:39.602Z,2.83
2018-06-13T06:48:40.624Z,3.30
2018-06-13T06:53:35.282Z,2.90
2018-06-13T06:58:30.946Z,2.90
2018-06-13T07:03:25.421Z,2.30
2018-06-13T07:08:19.809Z,2.80
2018-06-13T07:13:14.752Z,2.70
2018-06-13T07:18:09.349Z,2.50
2018-06-13T07:23:05.468Z,2.83
2018-06-13T07:28:02.368Z,2.70
2018-06-13T07:32:56.936Z,2.53
2018-06-13T07:37:51.340Z,2.40
2018-06-13T07:42:46.040Z,2.37
2018-06-13T07:47:43.260Z,2.80
2018-06-13T07:52:37.689Z,2.30
2018-06-13T07:57:32.802Z,2.23
2018-06-13T08:02:27.232Z,2.30
2018-06-13T08:07:22.521Z,2.00
2018-06-13T08:12:22.356Z,2.40
2018-06-13T08:17:21.189Z,2.17
2018-06-13T08:22:33.409Z,2.60
2018-06-13T08:27:27.877Z,2.90
2018-06-13T08:32:33.624Z,2.50
2018-06-13T08:37:28.451Z,2.80
2018-06-13T08:42:23.213Z,2.77
2018-06-13T08:47:17.971Z,3.13
2018-06-13T08:52:12.408Z,3.20
2018-06-13T08:57:07.016Z,3.30
2018-06-13T09:02:01.653Z,3.10
2018-06-13T09:06:55.801Z,3.20
2018-06-13T09:11:50.554Z,3.07
2018-06-13T09:16:44.747Z,3.43
2018-06-13T09:21:40.376Z,3.40
2018-06-13T09:26:34.891Z,4.20
2018-06-13T09:31:29.258Z,3.70
2018-06-13T09:36:23.880Z,4.03
2018-06-13T09:41:18.445Z,4.03
2018-06-13T09:46:13.007Z,4.63
2018-06-13T09:51:07.590Z,4.30
2018-06-13T09:56:02.115Z,5.07
2018-06-13T10:01:01.855Z,4.80
2018-06-13T10:05:56.515Z,4.43
2018-06-13T10:10:51.684Z,4.90
2018-06-13T10:15:46.700Z,4.80
2018-06-13T10:20:50.424Z,8.57
2018-06-13T10:25:51.840Z,6.53
2018-06-13T10:30:53.570Z,7.57
2018-06-13T10:35:52.617Z,6.87
2018-06-13T10:40:54.267Z,6.30
2018-06-13T10:46:14.154Z,6.40
2018-06-13T10:51:19.685Z,6.10
2018-06-13T10:56:22.796Z,6.50
2018-06-13T11:01:17.591Z,6.20
2018-06-13T11:06:12.118Z,6.27
2018-06-13T11:13:13.738Z,6.03
2018-06-13T11:18:08.576Z,6.67
2018-06-13T11:23:03.078Z,8.10
2018-06-13T11:27:57.609Z,8.20
2018-06-13T11:32:52.078Z,7.53
2018-06-13T11:37:46.532Z,8.93
2018-06-13T11:42:41.353Z,8.80
2018-06-13T11:47:37.104Z,7.87
2018-06-13T11:52:31.625Z,8.63
2018-06-13T11:57:27.071Z,7.47
2018-06-13T12:02:21.716Z,7.57
2018-06-13T12:07:16.148Z,9.23
2018-06-13T12:12:10.594Z,7.57
2018-06-13T12:17:05.298Z,9.27
2018-06-13T12:21:59.917Z,7.27
2018-06-13T12:26:54.522Z,7.90
2018-06-13T12:31:49.048Z,7.30
2018-06-13T12:36:43.586Z,8.50
2018-06-13T12:41:38.160Z,8.47
2018-06-13T12:46:32.665Z,7.40
2018-06-13T12:51:27.281Z,8.83
2018-06-13T12:56:21.856Z,9.27
2018-06-13T13:01:17.249Z,10.90
2018-06-13T13:06:11.701Z,9.13
2018-06-13T13:11:06.862Z,9.73
2018-06-13T13:16:01.505Z,9.03
2018-06-13T13:20:56.931Z,9.80
2018-06-13T13:25:52.641Z,9.40
2018-06-13T13:30:47.123Z,9.23
2018-06-13T13:35:41.824Z,8.67
2018-06-13T13:40:45.984Z,8.30
2018-06-13T13:45:40.814Z,8.90
2018-06-13T13:50:35.696Z,8.97
2018-06-13T13:55:30.188Z,9.27
2018-06-13T14:00:24.761Z,9.73
2018-06-13T14:05:19.334Z,9.77
2018-06-13T14:10:13.816Z,9.33
2018-06-13T14:15:08.444Z,10.37
2018-06-13T14:20:03.909Z,10.07
2018-06-13T14:24:58.353Z,10.80
2018-06-13T14:29:52.936Z,11.03
2018-06-13T14:34:48.509Z,10.90
2018-06-13T14:39:42.976Z,10.10
2018-06-13T14:46:06.925Z,9.63
2018-06-13T14:51:01.532Z,8.70
2018-06-13T14:56:01.053Z,9.43
2018-06-13T15:00:55.565Z,9.90
2018-06-13T15:05:50.097Z,9.17
2018-06-13T15:10:44.960Z,9.43
2018-06-13T15:15:39.617Z,9.90
2018-06-13T15:20:34.290Z,10.17
2018-06-13T15:25:31.724Z,9.27
2018-06-13T15:30:28.756Z,9.73
2018-06-13T15:35:23.364Z,9.87
2018-06-13T15:40:17.857Z,9.70
2018-06-13T15:45:12.422Z,8.73
2018-06-13T15:50:06.988Z,7.90
2018-06-13T15:55:01.612Z,8.50
2018-06-13T15:59:56.062Z,8.63
2018-06-13T16:04:50.673Z,9.47
2018-06-13T16:09:45.135Z,8.03
2018-06-13T16:14:39.633Z,8.20
2018-06-13T16:19:34.189Z,9.23
2018-06-13T16:24:28.690Z,10.53
2018-06-13T16:29:23.257Z,9.60
2018-06-13T16:34:17.774Z,10.00
2018-06-13T16:39:12.234Z,10.70
2018-06-13T16:44:06.987Z,10.07
2018-06-13T16:49:01.417Z,10.40
2018-06-13T16:54:14.112Z,9.47
2018-06-13T16:59:08.570Z,11.73
2018-06-13T17:04:03.064Z,11.00
2018-06-13T17:08:57.481Z,9.80
2018-06-13T17:13:51.955Z,8.17
2018-06-13T17:18:46.419Z,8.63
2018-06-13T17:23:40.650Z,8.20
2018-06-13T17:28:35.298Z,9.93
2018-06-13T17:33:29.940Z,10.13
2018-06-13T17:38:24.313Z,9.50
2018-06-13T17:43:18.960Z,9.60
2018-06-13T17:48:13.466Z,10.33
2018-06-13T17:53:07.881Z,9.43
2018-06-13T17:58:02.925Z,9.43
2018-06-13T18:02:57.360Z,9.17
2018-06-13T18:07:51.876Z,9.83
2018-06-13T18:12:46.334Z,10.13
2018-06-13T18:17:40.767Z,9.53
2018-06-13T18:22:35.309Z,10.13
2018-06-13T18:27:29.928Z,10.37
2018-06-13T18:32:24.352Z,9.83
2018-06-13T18:37:18.859Z,10.57
2018-06-13T18:42:13.296Z,9.50
2018-06-13T18:47:07.766Z,11.43
2018-06-13T18:52:02.307Z,11.07
2018-06-13T18:56:58.813Z,11.70
2018-06-13T19:01:53.270Z,10.53
2018-06-13T19:06:47.712Z,10.97
2018-06-13T19:11:42.483Z,11.80
2018-06-13T19:16:36.880Z,11.50
2018-06-13T19:21:31.443Z,10.90
2018-06-13T19:26:26.000Z,11.13
2018-06-13T19:31:20.489Z,10.67
2018-06-13T19:36:14.967Z,11.97
2018-06-13T19:41:09.461Z,11.50
2018-06-13T19:46:03.892Z,12.30
2018-06-13T19:50:58.375Z,12.90
2018-06-13T19:55:57.996Z,12.33
2018-06-13T20:00:52.533Z,13.67
2018-06-13T20:05:47.035Z,13.90
2018-06-13T20:10:42.270Z,12.87
2018-06-13T20:17:46.173Z,12.20
2018-06-13T20:22:40.656Z,11.60
2018-06-13T20:27:40.453Z,12.70
2018-06-13T20:32:35.537Z,13.77
2018-06-13T20:37:29.973Z,12.93
2018-06-13T20:42:24.524Z,14.50
2018-06-13T20:47:18.926Z,13.17
2018-06-13T20:52:13.436Z,12.63
2018-06-13T20:57:07.655Z,10.77
2018-06-13T21:02:02.106Z,8.07
2018-06-13T21:06:56.525Z,6.97
2018-06-13T21:11:50.969Z,5.70
2018-06-13T21:16:45.450Z,5.47
2018-06-13T21:21:39.864Z,5.60
2018-06-13T21:26:34.372Z,5.87
2018-06-13T21:31:28.776Z,5.23
2018-06-13T21:36:23.328Z,5.60
2018-06-13T21:41:17.790Z,5.40
2018-06-13T21:46:12.297Z,5.83
2018-06-13T21:51:07.101Z,5.77
2018-06-13T21:56:01.595Z,6.10
2018-06-13T22:00:56.073Z,5.93
2018-06-13T22:05:50.508Z,6.33
2018-06-13T22:10:44.934Z,5.83
2018-06-13T22:15:39.460Z,6.33
2018-06-13T22:20:34.014Z,6.57
2018-06-13T22:25:28.613Z,5.80
2018-06-13T22:30:23.163Z,6.10
2018-06-13T22:35:17.634Z,5.90
2018-06-13T22:40:12.093Z,5.93
2018-06-13T22:45:06.724Z,6.60
2018-06-13T22:50:01.165Z,6.53
2018-06-13T22:54:56.464Z,6.93
2018-06-13T22:59:50.963Z,6.00
2018-06-13T23:04:45.413Z,6.53
2018-06-13T23:09:39.991Z,6.27
2018-06-13T23:14:34.570Z,5.80
2018-06-13T23:19:29.388Z,6.73
2018-06-13T23:24:23.829Z,6.87
2018-06-13T23:29:18.284Z,6.37
2018-06-13T23:34:12.782Z,6.90
2018-06-13T23:39:08.976Z,6.63
2018-06-13T23:44:03.805Z,6.03
2018-06-13T23:48:58.252Z,6.60
2018-06-13T23:53:52.777Z,7.17
2018-06-13T23:58:47.327Z,6.40
